sensor_id;sensor_type;location;lat;lon;timestamp;temperature;humidity
80380;DHT22;69690;48.158;17.134;2023-05-29T00:05:52;17.00;54.60
80380;DHT22;69690;48.158;17.134;2023-05-29T00:12:26;17.00;54.80
80380;DHT22;69690;48.158;17.134;2023-05-29T00:19:28;17.00;55.10
80380;DHT22;69690;48.158;17.134;2023-05-29T00:26:04;16.90;54.90
80380;DHT22;69690;48.158;17.134;2023-05-29T00:33:21;16.80;54.50
80380;DHT22;69690;48.158;17.134;2023-05-29T00:39:46;16.70;54.60
80380;DHT22;69690;48.158;17.134;2023-05-29T00:53:42;16.60;55.50
80380;DHT22;69690;48.158;17.134;2023-05-29T01:00:13;16.30;56.50
80380;DHT22;69690;48.158;17.134;2023-05-29T01:13:34;16.20;56.80
80380;DHT22;69690;48.158;17.134;2023-05-29T01:39:28;16.10;57.40
80380;DHT22;69690;48.158;17.134;2023-05-29T01:53:09;16.10;57.80
80380;DHT22;69690;48.158;17.134;2023-05-29T01:59:45;15.90;57.80
80380;DHT22;69690;48.158;17.134;2023-05-29T02:13:02;15.60;59.00
80380;DHT22;69690;48.158;17.134;2023-05-29T02:19:51;15.40;59.90
80380;DHT22;69690;48.158;17.134;2023-05-29T02:27:33;15.40;60.30
80380;DHT22;69690;48.158;17.134;2023-05-29T02:34:11;15.30;60.60
80380;DHT22;69690;48.158;17.134;2023-05-29T02:41:07;15.30;60.70
80380;DHT22;69690;48.158;17.134;2023-05-29T02:53:45;15.30;61.00
80380;DHT22;69690;48.158;17.134;2023-05-29T03:07:02;14.60;62.80
80380;DHT22;69690;48.158;17.134;2023-05-29T03:13:04;14.50;63.60
80380;DHT22;69690;48.158;17.134;2023-05-29T03:26:28;14.30;64.30
80380;DHT22;69690;48.158;17.134;2023-05-29T03:40:27;14.20;65.30
80380;DHT22;69690;48.158;17.134;2023-05-29T04:07:17;14.50;65.10
80380;DHT22;69690;48.158;17.134;2023-05-29T04:13:51;14.40;65.30
80380;DHT22;69690;48.158;17.134;2023-05-29T04:20:11;14.50;65.40
80380;DHT22;69690;48.158;17.134;2023-05-29T04:26:34;14.60;65.40
80380;DHT22;69690;48.158;17.134;2023-05-29T04:33:05;14.60;65.30
80380;DHT22;69690;48.158;17.134;2023-05-29T04:52:10;14.80;65.00
80380;DHT22;69690;48.158;17.134;2023-05-29T05:12:11;15.50;64.50
80380;DHT22;69690;48.158;17.134;2023-05-29T05:18:32;15.70;64.20
80380;DHT22;69690;48.158;17.134;2023-05-29T05:44:54;16.50;61.50
80380;DHT22;69690;48.158;17.134;2023-05-29T05:58:08;16.70;60.90
80380;DHT22;69690;48.158;17.134;2023-05-29T06:11:12;16.80;61.00
80380;DHT22;69690;48.158;17.134;2023-05-29T06:17:50;16.80;60.80
80380;DHT22;69690;48.158;17.134;2023-05-29T06:23:31;16.80;61.00
80380;DHT22;69690;48.158;17.134;2023-05-29T06:36:24;17.10;60.10
80380;DHT22;69690;48.158;17.134;2023-05-29T06:43:11;17.40;59.80
80380;DHT22;69690;48.158;17.134;2023-05-29T06:49:21;17.70;59.30
80380;DHT22;69690;48.158;17.134;2023-05-29T06:55:24;17.90;58.70
80380;DHT22;69690;48.158;17.134;2023-05-29T07:02:01;18.00;58.60
80380;DHT22;69690;48.158;17.134;2023-05-29T07:07:11;18.40;58.10
80380;DHT22;69690;48.158;17.134;2023-05-29T07:12:12;18.60;58.00
80380;DHT22;69690;48.158;17.134;2023-05-29T07:17:14;18.80;58.00
80380;DHT22;69690;48.158;17.134;2023-05-29T07:22:16;18.90;57.30
80380;DHT22;69690;48.158;17.134;2023-05-29T07:27:18;19.00;56.80
80380;DHT22;69690;48.158;17.134;2023-05-29T07:32:19;19.20;56.60
80380;DHT22;69690;48.158;17.134;2023-05-29T07:37:22;19.30;55.90
80380;DHT22;69690;48.158;17.134;2023-05-29T07:42:24;19.40;56.10
80380;DHT22;69690;48.158;17.134;2023-05-29T07:47:25;19.50;56.00
80380;DHT22;69690;48.158;17.134;2023-05-29T07:52:28;19.60;56.00
80380;DHT22;69690;48.158;17.134;2023-05-29T07:57:29;19.80;55.80
80380;DHT22;69690;48.158;17.134;2023-05-29T08:07:36;20.10;54.50
80380;DHT22;69690;48.158;17.134;2023-05-29T08:12:38;20.30;54.70
80380;DHT22;69690;48.158;17.134;2023-05-29T08:17:41;20.50;54.30
80380;DHT22;69690;48.158;17.134;2023-05-29T08:22:42;20.90;54.20
80380;DHT22;69690;48.158;17.134;2023-05-29T08:27:44;21.20;53.80
80380;DHT22;69690;48.158;17.134;2023-05-29T08:32:45;21.30;53.70
80380;DHT22;69690;48.158;17.134;2023-05-29T08:37:46;21.50;52.70
80380;DHT22;69690;48.158;17.134;2023-05-29T08:43:06;21.70;52.10
80380;DHT22;69690;48.158;17.134;2023-05-29T08:48:12;21.90;51.90
80380;DHT22;69690;48.158;17.134;2023-05-29T08:53:15;22.00;51.40
80380;DHT22;69690;48.158;17.134;2023-05-29T08:58:20;22.10;51.20
80380;DHT22;69690;48.158;17.134;2023-05-29T09:03:22;22.30;51.40
80380;DHT22;69690;48.158;17.134;2023-05-29T09:08:23;22.50;50.40
80380;DHT22;69690;48.158;17.134;2023-05-29T09:13:24;22.70;49.70
80380;DHT22;69690;48.158;17.134;2023-05-29T09:18:30;22.90;49.40
80380;DHT22;69690;48.158;17.134;2023-05-29T09:23:31;23.00;49.20
80380;DHT22;69690;48.158;17.134;2023-05-29T09:28:33;23.20;48.40
80380;DHT22;69690;48.158;17.134;2023-05-29T09:33:46;23.30;48.10
80380;DHT22;69690;48.158;17.134;2023-05-29T09:38:49;23.50;48.00
80380;DHT22;69690;48.158;17.134;2023-05-29T09:43:52;23.70;47.00
80380;DHT22;69690;48.158;17.134;2023-05-29T09:49:01;23.70;46.60
80380;DHT22;69690;48.158;17.134;2023-05-29T09:54:16;24.00;45.90
80380;DHT22;69690;48.158;17.134;2023-05-29T09:59:18;24.30;45.70
80380;DHT22;69690;48.158;17.134;2023-05-29T10:04:22;24.60;45.20
80380;DHT22;69690;48.158;17.134;2023-05-29T10:09:26;27.30;41.40
80380;DHT22;69690;48.158;17.134;2023-05-29T10:14:29;31.90;34.40
80380;DHT22;69690;48.158;17.134;2023-05-29T10:19:36;35.90;31.30
80380;DHT22;69690;48.158;17.134;2023-05-29T10:24:40;38.40;28.40
80380;DHT22;69690;48.158;17.134;2023-05-29T10:29:52;39.80;26.60
80380;DHT22;69690;48.158;17.134;2023-05-29T10:40:12;44.00;24.10
80380;DHT22;69690;48.158;17.134;2023-05-29T10:56:01;49.00;21.60
80380;DHT22;69690;48.158;17.134;2023-05-29T11:01:03;48.90;21.60
80380;DHT22;69690;48.158;17.134;2023-05-29T11:06:20;47.70;21.50
80380;DHT22;69690;48.158;17.134;2023-05-29T11:26:57;48.00;20.60
80380;DHT22;69690;48.158;17.134;2023-05-29T11:32:12;48.90;21.20
80380;DHT22;69690;48.158;17.134;2023-05-29T11:37:15;49.90;20.90
80380;DHT22;69690;48.158;17.134;2023-05-29T11:42:17;47.70;20.50
80380;DHT22;69690;48.158;17.134;2023-05-29T11:47:18;46.30;21.60
80380;DHT22;69690;48.158;17.134;2023-05-29T11:52:20;47.20;21.40
80380;DHT22;69690;48.158;17.134;2023-05-29T11:57:25;46.80;21.10
80380;DHT22;69690;48.158;17.134;2023-05-29T12:02:30;49.10;21.10
80380;DHT22;69690;48.158;17.134;2023-05-29T12:07:32;49.10;20.90
80380;DHT22;69690;48.158;17.134;2023-05-29T12:12:33;49.30;20.60
80380;DHT22;69690;48.158;17.134;2023-05-29T12:17:36;43.90;21.20
80380;DHT22;69690;48.158;17.134;2023-05-29T12:22:39;41.80;22.90
80380;DHT22;69690;48.158;17.134;2023-05-29T12:27:43;44.50;21.80
80380;DHT22;69690;48.158;17.134;2023-05-29T12:32:48;43.30;22.00
80380;DHT22;69690;48.158;17.134;2023-05-29T12:37:59;41.70;22.20
80380;DHT22;69690;48.158;17.134;2023-05-29T12:43:03;41.50;22.20
80380;DHT22;69690;48.158;17.134;2023-05-29T12:48:07;39.30;23.50
80380;DHT22;69690;48.158;17.134;2023-05-29T12:53:14;40.30;22.90
80380;DHT22;69690;48.158;17.134;2023-05-29T12:58:18;40.50;22.40
80380;DHT22;69690;48.158;17.134;2023-05-29T13:03:22;37.60;23.70
80380;DHT22;69690;48.158;17.134;2023-05-29T13:08:26;37.00;24.00
80380;DHT22;69690;48.158;17.134;2023-05-29T13:13:28;39.50;23.20
80380;DHT22;69690;48.158;17.134;2023-05-29T13:18:29;39.40;22.70
80380;DHT22;69690;48.158;17.134;2023-05-29T13:23:30;37.30;23.60
80380;DHT22;69690;48.158;17.134;2023-05-29T13:28:33;35.50;24.60
80380;DHT22;69690;48.158;17.134;2023-05-29T13:33:34;34.00;25.40
80380;DHT22;69690;48.158;17.134;2023-05-29T13:38:35;33.90;25.50
80380;DHT22;69690;48.158;17.134;2023-05-29T13:43:37;33.00;25.90
80380;DHT22;69690;48.158;17.134;2023-05-29T13:48:38;32.30;26.30
80380;DHT22;69690;48.158;17.134;2023-05-29T13:53:39;31.80;26.60
80380;DHT22;69690;48.158;17.134;2023-05-29T13:58:41;31.20;26.80
80380;DHT22;69690;48.158;17.134;2023-05-29T14:03:42;30.90;27.20
80380;DHT22;69690;48.158;17.134;2023-05-29T14:08:43;31.00;27.90
80380;DHT22;69690;48.158;17.134;2023-05-29T14:13:45;30.10;28.20
80380;DHT22;69690;48.158;17.134;2023-05-29T14:18:46;30.20;28.00
80380;DHT22;69690;48.158;17.134;2023-05-29T14:23:49;30.50;28.10
80380;DHT22;69690;48.158;17.134;2023-05-29T14:28:50;29.70;28.30
80380;DHT22;69690;48.158;17.134;2023-05-29T14:33:52;29.20;28.80
80380;DHT22;69690;48.158;17.134;2023-05-29T14:38:53;29.00;29.70
80380;DHT22;69690;48.158;17.134;2023-05-29T14:43:54;28.60;30.20
80380;DHT22;69690;48.158;17.134;2023-05-29T14:49:02;28.30;30.90
80380;DHT22;69690;48.158;17.134;2023-05-29T14:54:03;28.20;31.20
80380;DHT22;69690;48.158;17.134;2023-05-29T14:59:04;28.10;30.90
80380;DHT22;69690;48.158;17.134;2023-05-29T15:04:06;28.10;31.80
80380;DHT22;69690;48.158;17.134;2023-05-29T15:09:08;28.10;31.20
80380;DHT22;69690;48.158;17.134;2023-05-29T15:14:11;28.70;30.90
80380;DHT22;69690;48.158;17.134;2023-05-29T15:19:14;28.20;30.70
80380;DHT22;69690;48.158;17.134;2023-05-29T15:24:16;27.90;31.00
80380;DHT22;69690;48.158;17.134;2023-05-29T15:29:17;27.50;31.10
80380;DHT22;69690;48.158;17.134;2023-05-29T15:34:19;27.30;31.80
80380;DHT22;69690;48.158;17.134;2023-05-29T15:39:20;27.20;31.70
80380;DHT22;69690;48.158;17.134;2023-05-29T15:44:21;27.20;32.20
80380;DHT22;69690;48.158;17.134;2023-05-29T15:49:23;27.50;31.70
80380;DHT22;69690;48.158;17.134;2023-05-29T15:54:24;29.00;30.00
80380;DHT22;69690;48.158;17.134;2023-05-29T15:59:26;30.10;28.60
80380;DHT22;69690;48.158;17.134;2023-05-29T16:04:27;29.30;28.50
80380;DHT22;69690;48.158;17.134;2023-05-29T16:09:29;28.40;29.30
80380;DHT22;69690;48.158;17.134;2023-05-29T16:14:30;27.70;30.00
80380;DHT22;69690;48.158;17.134;2023-05-29T16:19:31;27.20;30.30
80380;DHT22;69690;48.158;17.134;2023-05-29T16:24:33;27.00;30.60
80380;DHT22;69690;48.158;17.134;2023-05-29T16:29:34;26.80;30.90
80380;DHT22;69690;48.158;17.134;2023-05-29T16:34:36;26.50;30.80
80380;DHT22;69690;48.158;17.134;2023-05-29T16:39:37;26.10;31.20
80380;DHT22;69690;48.158;17.134;2023-05-29T16:44:39;25.80;31.20
80380;DHT22;69690;48.158;17.134;2023-05-29T16:49:40;25.60;31.50
80380;DHT22;69690;48.158;17.134;2023-05-29T16:54:42;25.40;31.80
80380;DHT22;69690;48.158;17.134;2023-05-29T16:59:44;25.20;31.80
80380;DHT22;69690;48.158;17.134;2023-05-29T17:04:45;25.00;32.00
80380;DHT22;69690;48.158;17.134;2023-05-29T17:09:46;24.90;32.40
80380;DHT22;69690;48.158;17.134;2023-05-29T17:14:49;24.80;32.90
80380;DHT22;69690;48.158;17.134;2023-05-29T17:19:51;24.70;33.60
80380;DHT22;69690;48.158;17.134;2023-05-29T17:24:52;24.50;34.30
80380;DHT22;69690;48.158;17.134;2023-05-29T17:29:54;24.40;35.00
80380;DHT22;69690;48.158;17.134;2023-05-29T17:34:55;24.20;35.50
80380;DHT22;69690;48.158;17.134;2023-05-29T17:39:56;24.10;36.00
80380;DHT22;69690;48.158;17.134;2023-05-29T17:44:58;24.00;36.30
80380;DHT22;69690;48.158;17.134;2023-05-29T17:49:59;23.80;36.50
80380;DHT22;69690;48.158;17.134;2023-05-29T17:55:01;23.60;36.50
80380;DHT22;69690;48.158;17.134;2023-05-29T18:00:04;23.50;36.60
80380;DHT22;69690;48.158;17.134;2023-05-29T18:05:13;23.30;36.60
80380;DHT22;69690;48.158;17.134;2023-05-29T18:10:15;23.20;36.70
80380;DHT22;69690;48.158;17.134;2023-05-29T18:15:21;23.10;36.80
80380;DHT22;69690;48.158;17.134;2023-05-29T18:20:23;22.90;36.90
80380;DHT22;69690;48.158;17.134;2023-05-29T18:25:29;22.80;37.10
80380;DHT22;69690;48.158;17.134;2023-05-29T18:30:30;22.70;37.30
80380;DHT22;69690;48.158;17.134;2023-05-29T18:35:32;22.50;37.80
80380;DHT22;69690;48.158;17.134;2023-05-29T18:40:33;22.40;38.00
80380;DHT22;69690;48.158;17.134;2023-05-29T18:45:35;22.20;38.50
80380;DHT22;69690;48.158;17.134;2023-05-29T18:50:37;22.00;38.90
80380;DHT22;69690;48.158;17.134;2023-05-29T18:55:39;21.80;39.40
80380;DHT22;69690;48.158;17.134;2023-05-29T19:00:41;21.60;40.10
80380;DHT22;69690;48.158;17.134;2023-05-29T19:05:42;21.40;40.80
80380;DHT22;69690;48.158;17.134;2023-05-29T19:10:46;21.30;41.70
80380;DHT22;69690;48.158;17.134;2023-05-29T19:15:48;21.20;41.30
80380;DHT22;69690;48.158;17.134;2023-05-29T19:20:49;21.10;41.70
80380;DHT22;69690;48.158;17.134;2023-05-29T19:25:50;21.00;42.30
80380;DHT22;69690;48.158;17.134;2023-05-29T19:30:53;20.80;42.90
80380;DHT22;69690;48.158;17.134;2023-05-29T19:35:55;20.70;43.50
80380;DHT22;69690;48.158;17.134;2023-05-29T19:40:56;20.60;43.70
80380;DHT22;69690;48.158;17.134;2023-05-29T19:45:58;20.50;43.90
80380;DHT22;69690;48.158;17.134;2023-05-29T19:50:59;20.40;44.30
80380;DHT22;69690;48.158;17.134;2023-05-29T19:56:01;20.30;44.70
80380;DHT22;69690;48.158;17.134;2023-05-29T20:01:02;20.20;44.90
80380;DHT22;69690;48.158;17.134;2023-05-29T20:06:04;20.20;44.90
80380;DHT22;69690;48.158;17.134;2023-05-29T20:11:06;20.10;45.30
80380;DHT22;69690;48.158;17.134;2023-05-29T20:16:07;20.10;45.10
80380;DHT22;69690;48.158;17.134;2023-05-29T20:21:09;20.00;45.30
80380;DHT22;69690;48.158;17.134;2023-05-29T20:26:13;19.90;45.20
80380;DHT22;69690;48.158;17.134;2023-05-29T20:31:14;19.70;45.50
80380;DHT22;69690;48.158;17.134;2023-05-29T20:36:15;19.70;45.60
80380;DHT22;69690;48.158;17.134;2023-05-29T20:41:19;19.60;45.30
80380;DHT22;69690;48.158;17.134;2023-05-29T20:46:22;19.50;45.70
80380;DHT22;69690;48.158;17.134;2023-05-29T20:51:25;19.40;46.30
80380;DHT22;69690;48.158;17.134;2023-05-29T20:56:27;19.30;46.30
80380;DHT22;69690;48.158;17.134;2023-05-29T21:01:29;19.30;46.20
80380;DHT22;69690;48.158;17.134;2023-05-29T21:06:30;19.20;47.00
80380;DHT22;69690;48.158;17.134;2023-05-29T21:11:32;19.10;47.40
80380;DHT22;69690;48.158;17.134;2023-05-29T21:16:34;19.10;47.00
80380;DHT22;69690;48.158;17.134;2023-05-29T21:21:35;19.00;47.00
80380;DHT22;69690;48.158;17.134;2023-05-29T21:26:38;18.90;47.30
80380;DHT22;69690;48.158;17.134;2023-05-29T21:31:39;18.80;48.10
80380;DHT22;69690;48.158;17.134;2023-05-29T21:36:43;18.80;48.60
80380;DHT22;69690;48.158;17.134;2023-05-29T21:41:45;18.70;48.90
80380;DHT22;69690;48.158;17.134;2023-05-29T21:46:47;18.60;49.00
80380;DHT22;69690;48.158;17.134;2023-05-29T21:51:48;18.50;49.40
80380;DHT22;69690;48.158;17.134;2023-05-29T21:56:51;18.40;50.00
80380;DHT22;69690;48.158;17.134;2023-05-29T22:01:53;18.40;50.20
80380;DHT22;69690;48.158;17.134;2023-05-29T22:06:54;18.40;50.30
80380;DHT22;69690;48.158;17.134;2023-05-29T22:11:56;18.30;50.10
80380;DHT22;69690;48.158;17.134;2023-05-29T22:16:58;18.20;50.20
80380;DHT22;69690;48.158;17.134;2023-05-29T22:22:01;18.20;50.10
80380;DHT22;69690;48.158;17.134;2023-05-29T22:27:04;18.10;50.20
80380;DHT22;69690;48.158;17.134;2023-05-29T22:32:07;18.10;50.20
80380;DHT22;69690;48.158;17.134;2023-05-29T22:37:08;18.10;50.30
80380;DHT22;69690;48.158;17.134;2023-05-29T22:42:09;18.00;50.40
80380;DHT22;69690;48.158;17.134;2023-05-29T22:47:11;17.90;50.70
80380;DHT22;69690;48.158;17.134;2023-05-29T22:52:12;17.90;50.90
80380;DHT22;69690;48.158;17.134;2023-05-29T22:57:14;17.80;51.60
80380;DHT22;69690;48.158;17.134;2023-05-29T23:02:15;17.70;53.10
80380;DHT22;69690;48.158;17.134;2023-05-29T23:07:17;17.80;52.60
80380;DHT22;69690;48.158;17.134;2023-05-29T23:12:19;17.60;52.90
80380;DHT22;69690;48.158;17.134;2023-05-29T23:17:21;17.50;53.40
80380;DHT22;69690;48.158;17.134;2023-05-29T23:22:23;17.40;53.60
80380;DHT22;69690;48.158;17.134;2023-05-29T23:27:24;17.30;53.90
80380;DHT22;69690;48.158;17.134;2023-05-29T23:32:26;17.30;54.40
80380;DHT22;69690;48.158;17.134;2023-05-29T23:37:27;17.20;54.70
80380;DHT22;69690;48.158;17.134;2023-05-29T23:42:29;17.10;54.90
80380;DHT22;69690;48.158;17.134;2023-05-29T23:47:30;17.10;55.10
80380;DHT22;69690;48.158;17.134;2023-05-29T23:52:32;17.00;55.50
80380;DHT22;69690;48.158;17.134;2023-05-29T23:57:33;17.00;55.70
